sensor_id;sensor_type;location;lat;lon;timestamp;pressure;altitude;pressure_sealevel;temperature;humidity
31239;BME280;17871;31.584;74.450;2023-02-12T00:01:53;99072.34;;;14.28;54.25
31239;BME280;17871;31.584;74.450;2023-02-12T00:04:22;99069.75;;;14.22;54.04
31239;BME280;17871;31.584;74.450;2023-02-12T00:06:51;99068.91;;;14.25;53.69
31239;BME280;17871;31.584;74.450;2023-02-12T00:09:20;99062.94;;;14.26;53.59
31239;BME280;17871;31.584;74.450;2023-02-12T00:11:49;99080.00;;;14.16;53.54
31239;BME280;17871;31.584;74.450;2023-02-12T00:14:19;99074.03;;;14.20;54.35
31239;BME280;17871;31.584;74.450;2023-02-12T00:16:48;99068.03;;;14.24;54.40
31239;BME280;17871;31.584;74.450;2023-02-12T00:19:17;99078.31;;;14.18;54.44
31239;BME280;17871;31.584;74.450;2023-02-12T00:21:46;99072.31;;;14.19;54.04
31239;BME280;17871;31.584;74.450;2023-02-12T00:24:16;99072.28;;;14.16;54.11
31239;BME280;17871;31.584;74.450;2023-02-12T00:26:44;99072.28;;;14.13;54.62
31239;BME280;17871;31.584;74.450;2023-02-12T00:29:16;99073.13;;;14.14;55.12
31239;BME280;17871;31.584;74.450;2023-02-12T00:31:45;99083.34;;;13.92;55.20
31239;BME280;17871;31.584;74.450;2023-02-12T00:34:15;99091.06;;;13.97;55.09
31239;BME280;17871;31.584;74.450;2023-02-12T00:36:44;99081.63;;;13.94;55.36
31239;BME280;17871;31.584;74.450;2023-02-12T00:39:13;99088.53;;;14.01;55.02
31239;BME280;17871;31.584;74.450;2023-02-12T00:41:42;99085.94;;;14.03;54.64
31239;BME280;17871;31.584;74.450;2023-02-12T00:44:36;99080.00;;;14.15;54.64
31239;BME280;17871;31.584;74.450;2023-02-12T00:47:09;99088.50;;;14.03;54.44
31239;BME280;17871;31.584;74.450;2023-02-12T00:49:39;99090.22;;;14.01;54.16
31239;BME280;17871;31.584;74.450;2023-02-12T00:52:08;99101.38;;;14.08;53.92
31239;BME280;17871;31.584;74.450;2023-02-12T00:54:37;99094.53;;;14.05;54.25
31239;BME280;17871;31.584;74.450;2023-02-12T00:57:06;99106.50;;;14.03;54.47
31239;BME280;17871;31.584;74.450;2023-02-12T01:02:49;99101.34;;;14.03;54.04
31239;BME280;17871;31.584;74.450;2023-02-12T01:05:19;99107.38;;;14.03;54.01
31239;BME280;17871;31.584;74.450;2023-02-12T01:07:53;99105.69;;;14.06;54.28
31239;BME280;17871;31.584;74.450;2023-02-12T01:10:24;99100.50;;;14.04;54.45
31239;BME280;17871;31.584;74.450;2023-02-12T01:12:55;99112.47;;;14.00;54.98
31239;BME280;17871;31.584;74.450;2023-02-12T01:15:26;99109.06;;;14.00;54.15
31239;BME280;17871;31.584;74.450;2023-02-12T01:18:00;99112.50;;;13.99;54.03
31239;BME280;17871;31.584;74.450;2023-02-12T01:20:30;99117.63;;;13.99;53.47
31239;BME280;17871;31.584;74.450;2023-02-12T01:23:00;99122.78;;;13.99;53.90
31239;BME280;17871;31.584;74.450;2023-02-12T01:25:29;99127.00;;;13.91;54.12
31239;BME280;17871;31.584;74.450;2023-02-12T01:27:59;99129.56;;;13.89;53.68
31239;BME280;17871;31.584;74.450;2023-02-12T01:30:28;99129.53;;;13.86;54.05
31239;BME280;17871;31.584;74.450;2023-02-12T01:32:58;99135.50;;;13.81;53.92
31239;BME280;17871;31.584;74.450;2023-02-12T01:35:28;99141.56;;;13.89;53.74
31239;BME280;17871;31.584;74.450;2023-02-12T01:38:00;99150.94;;;13.84;53.86
31239;BME280;17871;31.584;74.450;2023-02-12T01:40:29;99152.66;;;13.88;53.61
31239;BME280;17871;31.584;74.450;2023-02-12T01:43:02;99149.25;;;13.86;53.82
31239;BME280;17871;31.584;74.450;2023-02-12T01:48:05;99159.41;;;13.71;53.99
31239;BME280;17871;31.584;74.450;2023-02-12T01:50:35;99167.22;;;13.83;53.76
31239;BME280;17871;31.584;74.450;2023-02-12T01:53:05;99171.47;;;13.84;53.97
31239;BME280;17871;31.584;74.450;2023-02-12T01:55:34;99171.44;;;13.78;54.10
31239;BME280;17871;31.584;74.450;2023-02-12T01:58:05;99179.19;;;13.84;54.95
31239;BME280;17871;31.584;74.450;2023-02-12T02:00:35;99196.28;;;13.80;54.38
31239;BME280;17871;31.584;74.450;2023-02-12T02:03:04;99183.47;;;13.82;54.30
31239;BME280;17871;31.584;74.450;2023-02-12T02:08:18;99194.63;;;13.85;54.33
31239;BME280;17871;31.584;74.450;2023-02-12T02:14:52;99213.47;;;13.90;54.27
31239;BME280;17871;31.584;74.450;2023-02-12T02:39:08;99250.53;;;14.21;54.53
31239;BME280;17871;31.584;74.450;2023-02-12T02:44:21;99276.91;;;13.96;56.17
31239;BME280;17871;31.584;74.450;2023-02-12T02:46:52;99280.41;;;14.04;54.95
31239;BME280;17871;31.584;74.450;2023-02-12T02:49:26;99270.25;;;14.19;54.77
31239;BME280;17871;31.584;74.450;2023-02-12T02:52:04;99272.84;;;14.22;55.19
31239;BME280;17871;31.584;74.450;2023-02-12T02:54:48;99278.00;;;14.25;54.93
31239;BME280;17871;31.584;74.450;2023-02-12T02:57:24;99295.75;;;13.99;55.07
31239;BME280;17871;31.584;74.450;2023-02-12T03:00:19;99327.44;;;13.95;55.48
31239;BME280;17871;31.584;74.450;2023-02-12T03:02:55;99325.66;;;13.85;55.78
31239;BME280;17871;31.584;74.450;2023-02-12T03:05:42;99336.78;;;13.86;56.12
31239;BME280;17871;31.584;74.450;2023-02-12T03:08:17;99350.53;;;13.89;55.42
31239;BME280;17871;31.584;74.450;2023-02-12T03:10:55;99334.25;;;13.92;55.74
31239;BME280;17871;31.584;74.450;2023-02-12T03:13:38;99344.59;;;13.98;55.73
31239;BME280;17871;31.584;74.450;2023-02-12T03:18:55;99352.38;;;14.07;55.17
31239;BME280;17871;31.584;74.450;2023-02-12T03:21:36;99348.88;;;14.00;54.42
31239;BME280;17871;31.584;74.450;2023-02-12T03:24:11;99366.75;;;13.87;54.45
31239;BME280;17871;31.584;74.450;2023-02-12T03:26:51;99369.56;;;14.13;54.78
31239;BME280;17871;31.584;74.450;2023-02-12T03:29:22;99366.13;;;14.12;54.89
31239;BME280;17871;31.584;74.450;2023-02-12T03:35:15;99381.66;;;14.24;53.91
31239;BME280;17871;31.584;74.450;2023-02-12T03:44:29;99389.69;;;14.61;52.26
31239;BME280;17871;31.584;74.450;2023-02-12T03:47:41;99382.84;;;14.66;51.45
31239;BME280;17871;31.584;74.450;2023-02-12T03:52:52;99393.13;;;14.66;50.71
31239;BME280;17871;31.584;74.450;2023-02-12T03:55:21;99394.16;;;14.87;50.23
31239;BME280;17871;31.584;74.450;2023-02-12T03:57:56;99389.97;;;15.09;49.94
31239;BME280;17871;31.584;74.450;2023-02-12T04:04:28;99407.22;;;15.31;48.28
31239;BME280;17871;31.584;74.450;2023-02-12T04:07:00;99402.06;;;15.28;45.70
31239;BME280;17871;31.584;74.450;2023-02-12T04:09:31;99405.56;;;15.39;44.92
31239;BME280;17871;31.584;74.450;2023-02-12T04:14:45;99410.03;;;15.77;45.62
31239;BME280;17871;31.584;74.450;2023-02-12T04:17:25;99412.63;;;15.89;45.65
31239;BME280;17871;31.584;74.450;2023-02-12T04:20:15;99410.09;;;16.12;45.68
31239;BME280;17871;31.584;74.450;2023-02-12T04:25:52;99418.69;;;16.24;42.90
31239;BME280;17871;31.584;74.450;2023-02-12T04:28:39;99416.94;;;16.17;42.98
31239;BME280;17871;31.584;74.450;2023-02-12T04:31:37;99423.00;;;16.43;40.94
31239;BME280;17871;31.584;74.450;2023-02-12T04:37:22;99429.03;;;16.54;41.10
31239;BME280;17871;31.584;74.450;2023-02-12T04:39:55;99434.22;;;16.57;40.83
31239;BME280;17871;31.584;74.450;2023-02-12T04:42:26;99434.22;;;16.60;40.95
31239;BME280;17871;31.584;74.450;2023-02-12T04:44:56;99432.47;;;16.73;40.90
31239;BME280;17871;31.584;74.450;2023-02-12T04:47:26;99426.47;;;16.82;41.36
31239;BME280;17871;31.584;74.450;2023-02-12T04:49:56;99434.19;;;16.94;40.13
31239;BME280;17871;31.584;74.450;2023-02-12T04:52:26;99436.78;;;16.82;40.38
31239;BME280;17871;31.584;74.450;2023-02-12T04:54:55;99439.34;;;16.86;38.88
31239;BME280;17871;31.584;74.450;2023-02-12T04:57:25;99435.88;;;16.99;40.57
31239;BME280;17871;31.584;74.450;2023-02-12T04:59:54;99442.75;;;17.16;39.66
31239;BME280;17871;31.584;74.450;2023-02-12T05:02:27;99441.88;;;17.24;39.05
31239;BME280;17871;31.584;74.450;2023-02-12T05:08:34;99440.13;;;17.26;40.05
31239;BME280;17871;31.584;74.450;2023-02-12T05:11:06;99446.06;;;17.58;39.93
31239;BME280;17871;31.584;74.450;2023-02-12T05:13:36;99445.25;;;17.41;38.96
31239;BME280;17871;31.584;74.450;2023-02-12T05:16:07;99445.22;;;17.56;39.46
31239;BME280;17871;31.584;74.450;2023-02-12T05:18:37;99447.78;;;17.53;39.58
31239;BME280;17871;31.584;74.450;2023-02-12T05:21:05;99459.88;;;17.56;39.54
31239;BME280;17871;31.584;74.450;2023-02-12T05:23:36;99456.41;;;17.55;39.37
31239;BME280;17871;31.584;74.450;2023-02-12T05:26:17;99457.13;;;17.91;39.07
31239;BME280;17871;31.584;74.450;2023-02-12T05:28:47;99445.16;;;17.78;38.77
31239;BME280;17871;31.584;74.450;2023-02-12T05:31:19;99448.47;;;17.95;38.37
31239;BME280;17871;31.584;74.450;2023-02-12T05:33:50;99449.41;;;17.86;37.56
31239;BME280;17871;31.584;74.450;2023-02-12T05:36:21;99447.53;;;18.12;37.88
31239;BME280;17871;31.584;74.450;2023-02-12T05:38:52;99442.34;;;18.14;37.58
31239;BME280;17871;31.584;74.450;2023-02-12T05:41:22;99437.09;;;18.23;37.12
31239;BME280;17871;31.584;74.450;2023-02-12T05:43:53;99447.41;;;18.29;36.35
31239;BME280;17871;31.584;74.450;2023-02-12T05:46:23;99446.53;;;18.33;35.85
31239;BME280;17871;31.584;74.450;2023-02-12T05:48:53;99454.34;;;18.21;36.08
31239;BME280;17871;31.584;74.450;2023-02-12T05:51:24;99444.88;;;18.23;36.37
31239;BME280;17871;31.584;74.450;2023-02-12T05:54:02;99451.53;;;18.60;35.91
31239;BME280;17871;31.584;74.450;2023-02-12T05:56:34;99444.63;;;18.58;35.94
31239;BME280;17871;31.584;74.450;2023-02-12T05:59:12;99460.06;;;18.69;35.64
31239;BME280;17871;31.584;74.450;2023-02-12T06:01:44;99453.94;;;18.79;36.79
31239;BME280;17871;31.584;74.450;2023-02-12T06:04:23;99448.78;;;18.77;36.17
31239;BME280;17871;31.584;74.450;2023-02-12T06:06:53;99440.00;;;18.93;37.29
31239;BME280;17871;31.584;74.450;2023-02-12T06:09:23;99443.69;;;18.70;36.81
31239;BME280;17871;31.584;74.450;2023-02-12T06:11:52;99440.28;;;18.63;36.69
31239;BME280;17871;31.584;74.450;2023-02-12T06:14:22;99441.88;;;18.79;37.31
31239;BME280;17871;31.584;74.450;2023-02-12T06:16:51;99442.63;;;18.89;36.66
31239;BME280;17871;31.584;74.450;2023-02-12T06:19:21;99439.88;;;19.05;36.81
31239;BME280;17871;31.584;74.450;2023-02-12T06:21:52;99442.69;;;18.83;36.79
31239;BME280;17871;31.584;74.450;2023-02-12T06:24:24;99438.06;;;19.13;36.88
31239;BME280;17871;31.584;74.450;2023-02-12T06:26:53;99433.72;;;19.14;36.21
31239;BME280;17871;31.584;74.450;2023-02-12T06:29:23;99435.56;;;19.06;35.60
31239;BME280;17871;31.584;74.450;2023-02-12T06:31:52;99437.16;;;19.19;36.91
31239;BME280;17871;31.584;74.450;2023-02-12T06:34:22;99435.47;;;19.15;37.07
31239;BME280;17871;31.584;74.450;2023-02-12T06:36:51;99430.38;;;19.06;37.06
31239;BME280;17871;31.584;74.450;2023-02-12T06:39:20;99431.72;;;19.43;37.83
31239;BME280;17871;31.584;74.450;2023-02-12T06:41:49;99422.16;;;19.47;38.32
31239;BME280;17871;31.584;74.450;2023-02-12T06:44:19;99420.47;;;19.46;37.26
31239;BME280;17871;31.584;74.450;2023-02-12T06:46:48;99417.91;;;19.41;36.79
31239;BME280;17871;31.584;74.450;2023-02-12T06:49:17;99421.22;;;19.55;35.56
31239;BME280;17871;31.584;74.450;2023-02-12T06:51:46;99411.56;;;19.65;35.96
31239;BME280;17871;31.584;74.450;2023-02-12T06:54:16;99412.25;;;19.78;35.96
31239;BME280;17871;31.584;74.450;2023-02-12T06:56:46;99411.78;;;19.47;36.15
31239;BME280;17871;31.584;74.450;2023-02-12T06:59:16;99412.44;;;19.65;35.18
31239;BME280;17871;31.584;74.450;2023-02-12T07:01:45;99407.22;;;19.68;34.54
31239;BME280;17871;31.584;74.450;2023-02-12T07:04:14;99409.00;;;19.63;34.12
31239;BME280;17871;31.584;74.450;2023-02-12T07:06:43;99401.84;;;19.79;34.86
31239;BME280;17871;31.584;74.450;2023-02-12T07:09:12;99405.34;;;19.77;33.62
31239;BME280;17871;31.584;74.450;2023-02-12T07:11:41;99403.34;;;19.97;33.97
31239;BME280;17871;31.584;74.450;2023-02-12T07:14:15;99397.13;;;20.07;33.26
31239;BME280;17871;31.584;74.450;2023-02-12T07:16:45;99392.03;;;20.01;34.10
31239;BME280;17871;31.584;74.450;2023-02-12T07:19:14;99396.28;;;20.06;34.50
31239;BME280;17871;31.584;74.450;2023-02-12T07:21:44;99391.00;;;20.12;34.09
31239;BME280;17871;31.584;74.450;2023-02-12T07:24:14;99388.63;;;19.97;34.46
31239;BME280;17871;31.584;74.450;2023-02-12T07:26:45;99378.53;;;20.37;34.65
31239;BME280;17871;31.584;74.450;2023-02-12T07:29:14;99380.44;;;20.23;34.75
31239;BME280;17871;31.584;74.450;2023-02-12T07:31:44;99380.59;;;20.14;32.34
31239;BME280;17871;31.584;74.450;2023-02-12T07:34:13;99378.91;;;20.11;32.34
31239;BME280;17871;31.584;74.450;2023-02-12T07:36:43;99375.06;;;20.38;33.65
31239;BME280;17871;31.584;74.450;2023-02-12T07:39:12;99368.03;;;20.45;33.67
31239;BME280;17871;31.584;74.450;2023-02-12T07:41:41;99368.03;;;20.45;33.24
31239;BME280;17871;31.584;74.450;2023-02-12T07:44:11;99352.41;;;20.46;32.94
31239;BME280;17871;31.584;74.450;2023-02-12T07:46:45;99353.84;;;20.64;32.19
31239;BME280;17871;31.584;74.450;2023-02-12T07:49:20;99352.00;;;20.69;32.47
31239;BME280;17871;31.584;74.450;2023-02-12T07:51:49;99356.66;;;20.50;30.66
31239;BME280;17871;31.584;74.450;2023-02-12T07:54:19;99353.22;;;20.48;31.86
31239;BME280;17871;31.584;74.450;2023-02-12T07:56:48;99349.44;;;20.66;31.26
31239;BME280;17871;31.584;74.450;2023-02-12T07:59:19;99346.53;;;20.83;31.36
31239;BME280;17871;31.584;74.450;2023-02-12T08:01:50;99347.16;;;20.97;31.09
31239;BME280;17871;31.584;74.450;2023-02-12T08:04:22;99342.56;;;21.08;30.63
31239;BME280;17871;31.584;74.450;2023-02-12T08:06:54;99339.34;;;20.97;32.05
31239;BME280;17871;31.584;74.450;2023-02-12T08:09:26;99329.66;;;21.05;31.61
31239;BME280;17871;31.584;74.450;2023-02-12T08:11:55;99338.69;;;20.87;31.48
31239;BME280;17871;31.584;74.450;2023-02-12T08:14:26;99330.66;;;20.98;31.81
31239;BME280;17871;31.584;74.450;2023-02-12T08:16:55;99334.16;;;20.97;29.60
31239;BME280;17871;31.584;74.450;2023-02-12T08:19:24;99320.09;;;21.07;30.48
31239;BME280;17871;31.584;74.450;2023-02-12T08:21:55;99326.09;;;21.09;30.64
31239;BME280;17871;31.584;74.450;2023-02-12T08:24:24;99327.91;;;21.05;30.58
31239;BME280;17871;31.584;74.450;2023-02-12T08:26:54;99317.66;;;20.98;30.66
31239;BME280;17871;31.584;74.450;2023-02-12T08:29:26;99319.78;;;21.24;30.12
31239;BME280;17871;31.584;74.450;2023-02-12T08:31:58;99314.59;;;21.24;30.25
31239;BME280;17871;31.584;74.450;2023-02-12T08:34:33;99317.91;;;21.30;28.07
31239;BME280;17871;31.584;74.450;2023-02-12T08:37:04;99306.06;;;21.17;26.99
31239;BME280;17871;31.584;74.450;2023-02-12T08:39:34;99306.94;;;21.16;26.69
31239;BME280;17871;31.584;74.450;2023-02-12T08:42:03;99310.63;;;21.44;26.78
31239;BME280;17871;31.584;74.450;2023-02-12T08:44:33;99303.03;;;21.37;27.82
31239;BME280;17871;31.584;74.450;2023-02-12T08:47:03;99309.53;;;21.16;27.22
31239;BME280;17871;31.584;74.450;2023-02-12T08:49:34;99317.06;;;21.28;27.24
31239;BME280;17871;31.584;74.450;2023-02-12T08:52:04;99307.69;;;21.21;28.20
31239;BME280;17871;31.584;74.450;2023-02-12T08:54:34;99301.00;;;21.09;25.30
31239;BME280;17871;31.584;74.450;2023-02-12T08:57:03;99296.63;;;21.11;25.74
31239;BME280;17871;31.584;74.450;2023-02-12T08:59:32;99309.47;;;21.19;24.41
31239;BME280;17871;31.584;74.450;2023-02-12T09:02:02;99293.50;;;21.36;26.97
31239;BME280;17871;31.584;74.450;2023-02-12T09:04:36;99290.53;;;21.52;26.33
31239;BME280;17871;31.584;74.450;2023-02-12T09:07:05;99287.31;;;21.41;26.87
31239;BME280;17871;31.584;74.450;2023-02-12T09:09:37;99276.47;;;21.21;27.09
31239;BME280;17871;31.584;74.450;2023-02-12T09:12:07;99282.53;;;21.23;26.61
31239;BME280;17871;31.584;74.450;2023-02-12T09:14:36;99278.50;;;21.07;26.36
31239;BME280;17871;31.584;74.450;2023-02-12T09:17:05;99270.47;;;21.20;28.42
31239;BME280;17871;31.584;74.450;2023-02-12T09:19:34;99272.16;;;21.21;28.68
31239;BME280;17871;31.584;74.450;2023-02-12T09:22:04;99275.88;;;21.10;27.08
31239;BME280;17871;31.584;74.450;2023-02-12T09:24:33;99276.63;;;21.15;26.33
31239;BME280;17871;31.584;74.450;2023-02-12T09:27:02;99273.31;;;21.05;25.53
31239;BME280;17871;31.584;74.450;2023-02-12T09:29:31;99281.06;;;21.08;25.54
31239;BME280;17871;31.584;74.450;2023-02-12T09:32:01;99275.88;;;21.10;24.42
31239;BME280;17871;31.584;74.450;2023-02-12T09:34:36;99283.19;;;21.31;24.96
31239;BME280;17871;31.584;74.450;2023-02-12T09:37:05;99277.63;;;21.09;26.12
31239;BME280;17871;31.584;74.450;2023-02-12T09:39:34;99278.28;;;21.19;26.70
31239;BME280;17871;31.584;74.450;2023-02-12T09:45:32;99281.44;;;21.33;26.22
31239;BME280;17871;31.584;74.450;2023-02-12T09:48:17;99277.69;;;21.46;25.33
31239;BME280;17871;31.584;74.450;2023-02-12T09:50:59;99289.97;;;21.38;24.67
31239;BME280;17871;31.584;74.450;2023-02-12T09:53:31;99290.31;;;21.23;24.52
31239;BME280;17871;31.584;74.450;2023-02-12T09:56:08;99288.16;;;21.43;25.15
31239;BME280;17871;31.584;74.450;2023-02-12T09:58:49;99276.25;;;21.33;24.83
31239;BME280;17871;31.584;74.450;2023-02-12T10:01:21;99273.28;;;21.10;24.95
31239;BME280;17871;31.584;74.450;2023-02-12T10:03:51;99274.44;;;20.94;25.10
31239;BME280;17871;31.584;74.450;2023-02-12T10:06:28;99278.44;;;21.11;24.43
31239;BME280;17871;31.584;74.450;2023-02-12T10:12:12;99268.56;;;21.27;23.93
31239;BME280;17871;31.584;74.450;2023-02-12T10:20:37;99278.19;;;21.22;22.35
31239;BME280;17871;31.584;74.450;2023-02-12T10:26:07;99272.44;;;21.06;22.96
31239;BME280;17871;31.584;74.450;2023-02-12T10:28:41;99268.97;;;21.07;23.30
31239;BME280;17871;31.584;74.450;2023-02-12T10:33:57;99261.47;;;20.94;23.53
31239;BME280;17871;31.584;74.450;2023-02-12T10:36:40;99268.19;;;21.02;23.62
31239;BME280;17871;31.584;74.450;2023-02-12T10:41:57;99272.59;;;20.99;23.05
31239;BME280;17871;31.584;74.450;2023-02-12T10:44:29;99276.19;;;20.93;22.06
31239;BME280;17871;31.584;74.450;2023-02-12T10:46:59;99270.53;;;20.71;21.94
31239;BME280;17871;31.584;74.450;2023-02-12T10:49:30;99265.78;;;20.93;21.71
31239;BME280;17871;31.584;74.450;2023-02-12T10:52:08;99268.28;;;20.98;22.35
31239;BME280;17871;31.584;74.450;2023-02-12T10:54:43;99277.72;;;21.03;22.59
31239;BME280;17871;31.584;74.450;2023-02-12T10:57:23;99276.91;;;21.00;22.55
31239;BME280;17871;31.584;74.450;2023-02-12T10:59:58;99278.63;;;21.01;23.33
31239;BME280;17871;31.584;74.450;2023-02-12T11:02:59;99283.84;;;21.01;23.21
31239;BME280;17871;31.584;74.450;2023-02-12T11:05:31;99282.59;;;20.76;23.62
31239;BME280;17871;31.584;74.450;2023-02-12T11:08:03;99274.81;;;20.76;23.01
31239;BME280;17871;31.584;74.450;2023-02-12T11:10:38;99273.06;;;20.78;23.18
31239;BME280;17871;31.584;74.450;2023-02-12T11:13:25;99280.59;;;20.88;23.92
31239;BME280;17871;31.584;74.450;2023-02-12T11:15:55;99287.09;;;20.67;23.01
31239;BME280;17871;31.584;74.450;2023-02-12T11:18:30;99286.03;;;20.78;23.40
31239;BME280;17871;31.584;74.450;2023-02-12T11:21:09;99283.53;;;20.71;23.90
31239;BME280;17871;31.584;74.450;2023-02-12T11:23:42;99290.31;;;20.80;23.86
31239;BME280;17871;31.584;74.450;2023-02-12T11:29:04;99275.59;;;20.81;24.05
31239;BME280;17871;31.584;74.450;2023-02-12T11:32:00;99272.13;;;20.79;23.16
31239;BME280;17871;31.584;74.450;2023-02-12T11:34:30;99270.97;;;20.50;22.62
31239;BME280;17871;31.584;74.450;2023-02-12T11:37:00;99264.84;;;20.54;23.36
31239;BME280;17871;31.584;74.450;2023-02-12T11:39:35;99273.50;;;20.53;23.85
31239;BME280;17871;31.584;74.450;2023-02-12T11:42:20;99279.56;;;20.52;24.83
31239;BME280;17871;31.584;74.450;2023-02-12T11:44:55;99285.69;;;20.50;25.41
31239;BME280;17871;31.584;74.450;2023-02-12T11:47:28;99284.25;;;20.34;24.76
31239;BME280;17871;31.584;74.450;2023-02-12T11:50:23;99284.06;;;20.44;25.45
31239;BME280;17871;31.584;74.450;2023-02-12T11:53:01;99282.59;;;20.31;25.34
31239;BME280;17871;31.584;74.450;2023-02-12T11:55:37;99287.13;;;20.17;25.27
31239;BME280;17871;31.584;74.450;2023-02-12T11:58:16;99289.53;;;20.29;24.36
31239;BME280;17871;31.584;74.450;2023-02-12T12:00:51;99293.91;;;20.27;25.23
31239;BME280;17871;31.584;74.450;2023-02-12T12:06:00;99295.00;;;20.11;24.88
31239;BME280;17871;31.584;74.450;2023-02-12T12:08:43;99294.91;;;20.17;24.53
31239;BME280;17871;31.584;74.450;2023-02-12T12:11:20;99305.75;;;19.88;24.29
31239;BME280;17871;31.584;74.450;2023-02-12T12:16:53;99308.09;;;20.05;24.98
31239;BME280;17871;31.584;74.450;2023-02-12T12:22:42;99315.13;;;19.97;25.45
31239;BME280;17871;31.584;74.450;2023-02-12T12:25:30;99316.94;;;19.92;25.22
31239;BME280;17871;31.584;74.450;2023-02-12T12:33:54;99320.56;;;19.82;25.55
31239;BME280;17871;31.584;74.450;2023-02-12T12:50:51;99306.50;;;19.34;28.97
31239;BME280;17871;31.584;74.450;2023-02-12T12:56:36;99316.19;;;19.23;29.24
31239;BME280;17871;31.584;74.450;2023-02-12T13:10:49;99329.47;;;18.94;30.01
31239;BME280;17871;31.584;74.450;2023-02-12T13:13:37;99344.09;;;18.98;29.92
31239;BME280;17871;31.584;74.450;2023-02-12T13:21:55;99331.31;;;18.84;29.38
31239;BME280;17871;31.584;74.450;2023-02-12T13:27:18;99346.94;;;18.77;28.60
31239;BME280;17871;31.584;74.450;2023-02-12T13:29:53;99333.25;;;18.67;28.88
31239;BME280;17871;31.584;74.450;2023-02-12T13:32:37;99339.28;;;18.66;28.83
31239;BME280;17871;31.584;74.450;2023-02-12T13:35:24;99349.59;;;18.69;28.36
31239;BME280;17871;31.584;74.450;2023-02-12T13:37:58;99352.41;;;18.43;28.30
31239;BME280;17871;31.584;74.450;2023-02-12T13:40:29;99344.63;;;18.45;28.60
31239;BME280;17871;31.584;74.450;2023-02-12T13:43:27;99347.19;;;18.49;28.54
31239;BME280;17871;31.584;74.450;2023-02-12T13:51:49;99356.75;;;18.38;29.60
31239;BME280;17871;31.584;74.450;2023-02-12T14:01:15;99355.09;;;18.31;31.62
31239;BME280;17871;31.584;74.450;2023-02-12T14:07:10;99361.22;;;18.23;31.91
31239;BME280;17871;31.584;74.450;2023-02-12T14:15:03;99366.53;;;18.04;32.65
31239;BME280;17871;31.584;74.450;2023-02-12T14:27:58;99364.84;;;18.00;32.40
31239;BME280;17871;31.584;74.450;2023-02-12T14:30:35;99364.94;;;17.82;33.10
31239;BME280;17871;31.584;74.450;2023-02-12T14:35:42;99375.25;;;17.88;33.59
31239;BME280;17871;31.584;74.450;2023-02-12T14:40:49;99377.88;;;17.84;33.18
31239;BME280;17871;31.584;74.450;2023-02-12T14:49:01;99370.06;;;17.93;33.18
31239;BME280;17871;31.584;74.450;2023-02-12T14:54:47;99364.91;;;17.90;32.50
31239;BME280;17871;31.584;74.450;2023-02-12T14:57:30;99362.47;;;17.66;33.05
31239;BME280;17871;31.584;74.450;2023-02-12T15:05:41;99385.66;;;17.79;33.70
31239;BME280;17871;31.584;74.450;2023-02-12T15:08:17;99384.94;;;17.48;33.79
31239;BME280;17871;31.584;74.450;2023-02-12T15:10:53;99384.91;;;17.60;33.76
31239;BME280;17871;31.584;74.450;2023-02-12T15:13:45;99377.09;;;17.70;33.38
31239;BME280;17871;31.584;74.450;2023-02-12T15:19:09;99351.22;;;17.74;32.74
31239;BME280;17871;31.584;74.450;2023-02-12T15:21:42;99349.59;;;17.53;33.26
31239;BME280;17871;31.584;74.450;2023-02-12T15:24:21;99346.09;;;17.65;33.20
31239;BME280;17871;31.584;74.450;2023-02-12T15:27:00;99347.84;;;17.60;33.41
31239;BME280;17871;31.584;74.450;2023-02-12T15:29:35;99352.22;;;17.47;33.34
31239;BME280;17871;31.584;74.450;2023-02-12T15:32:16;99355.66;;;17.48;32.80
31239;BME280;17871;31.584;74.450;2023-02-12T15:34:48;99353.13;;;17.37;32.95
31239;BME280;17871;31.584;74.450;2023-02-12T15:37:25;99355.66;;;17.45;33.55
31239;BME280;17871;31.584;74.450;2023-02-12T15:39:57;99345.41;;;17.28;33.78
31239;BME280;17871;31.584;74.450;2023-02-12T15:42:32;99345.47;;;17.10;34.58
31239;BME280;17871;31.584;74.450;2023-02-12T15:47:44;99363.56;;;17.04;34.55
31239;BME280;17871;31.584;74.450;2023-02-12T15:50:16;99365.28;;;17.06;34.83
31239;BME280;17871;31.584;74.450;2023-02-12T15:52:46;99364.44;;;17.03;34.30
31239;BME280;17871;31.584;74.450;2023-02-12T15:55:20;99369.59;;;17.06;34.74
31239;BME280;17871;31.584;74.450;2023-02-12T15:57:53;99366.16;;;17.01;34.42
31239;BME280;17871;31.584;74.450;2023-02-12T16:00:38;99356.63;;;17.17;34.34
31239;BME280;17871;31.584;74.450;2023-02-12T16:03:27;99357.50;;;17.17;34.46
31239;BME280;17871;31.584;74.450;2023-02-12T16:06:10;99361.81;;;17.15;34.21
31239;BME280;17871;31.584;74.450;2023-02-12T16:08:44;99362.66;;;17.17;34.04
31239;BME280;17871;31.584;74.450;2023-02-12T16:11:18;99356.72;;;17.01;33.70
31239;BME280;17871;31.584;74.450;2023-02-12T16:13:54;99362.69;;;17.09;33.53
31239;BME280;17871;31.584;74.450;2023-02-12T16:16:51;99365.28;;;17.06;33.96
31239;BME280;17871;31.584;74.450;2023-02-12T16:19:30;99355.84;;;17.05;34.17
31239;BME280;17871;31.584;74.450;2023-02-12T16:22:06;99348.13;;;16.92;33.65
31239;BME280;17871;31.584;74.450;2023-02-12T16:24:45;99347.22;;;17.05;33.15
31239;BME280;17871;31.584;74.450;2023-02-12T16:27:19;99349.88;;;16.85;33.52
31239;BME280;17871;31.584;74.450;2023-02-12T16:29:55;99348.09;;;17.01;33.29
31239;BME280;17871;31.584;74.450;2023-02-12T16:32:32;99347.25;;;16.97;33.53
31239;BME280;17871;31.584;74.450;2023-02-12T16:37:50;99347.28;;;16.84;33.68
31239;BME280;17871;31.584;74.450;2023-02-12T16:40:23;99355.84;;;16.96;33.94
31239;BME280;17871;31.584;74.450;2023-02-12T16:50:53;99347.25;;;16.90;34.08
31239;BME280;17871;31.584;74.450;2023-02-12T16:53:26;99335.25;;;16.89;34.15
31239;BME280;17871;31.584;74.450;2023-02-12T16:56:00;99343.88;;;16.79;34.49